sensor_id;sensor_type;location;lat;lon;timestamp;pressure;altitude;pressure_sealevel;temperature
60731;BMP280;46580;52.114;11.674;2022-08-21T00:02:03;101084.09;;;19.51
60731;BMP280;46580;52.114;11.674;2022-08-21T00:04:29;101086.38;;;19.62
60731;BMP280;46580;52.114;11.674;2022-08-21T00:07:07;101084.75;;;19.61
60731;BMP280;46580;52.114;11.674;2022-08-21T00:09:38;101076.59;;;19.56
60731;BMP280;46580;52.114;11.674;2022-08-21T00:12:11;101075.59;;;19.49
60731;BMP280;46580;52.114;11.674;2022-08-21T00:14:37;101071.03;;;19.43
60731;BMP280;46580;52.114;11.674;2022-08-21T00:17:14;101077.72;;;19.46
60731;BMP280;46580;52.114;11.674;2022-08-21T00:19:42;101086.53;;;19.45
60731;BMP280;46580;52.114;11.674;2022-08-21T00:22:08;101080.81;;;19.41
60731;BMP280;46580;52.114;11.674;2022-08-21T00:24:33;101084.25;;;19.42
60731;BMP280;46580;52.114;11.674;2022-08-21T00:27:01;101080.81;;;19.49
60731;BMP280;46580;52.114;11.674;2022-08-21T00:29:26;101085.06;;;19.50
60731;BMP280;46580;52.114;11.674;2022-08-21T00:31:55;101088.03;;;19.55
60731;BMP280;46580;52.114;11.674;2022-08-21T00:34:20;101088.69;;;19.57
60731;BMP280;46580;52.114;11.674;2022-08-21T00:36:46;101090.78;;;19.61
60731;BMP280;46580;52.114;11.674;2022-08-21T00:42:10;101087.38;;;19.61
60731;BMP280;46580;52.114;11.674;2022-08-21T00:44:44;101083.13;;;19.52
60731;BMP280;46580;52.114;11.674;2022-08-21T00:47:12;101087.00;;;19.48
60731;BMP280;46580;52.114;11.674;2022-08-21T00:49:45;101081.97;;;19.47
60731;BMP280;46580;52.114;11.674;2022-08-21T00:52:21;101082.47;;;19.50
60731;BMP280;46580;52.114;11.674;2022-08-21T00:54:48;101077.22;;;19.50
60731;BMP280;46580;52.114;11.674;2022-08-21T00:57:21;101071.53;;;19.47
60731;BMP280;46580;52.114;11.674;2022-08-21T00:59:51;101070.22;;;19.51
60731;BMP280;46580;52.114;11.674;2022-08-21T01:02:21;101074.63;;;19.50
60731;BMP280;46580;52.114;11.674;2022-08-21T01:04:57;101072.81;;;19.51
60731;BMP280;46580;52.114;11.674;2022-08-21T01:07:26;101073.97;;;19.48
60731;BMP280;46580;52.114;11.674;2022-08-21T01:09:54;101066.78;;;19.50
60731;BMP280;46580;52.114;11.674;2022-08-21T01:12:27;101072.34;;;19.47
60731;BMP280;46580;52.114;11.674;2022-08-21T01:15:13;101070.22;;;19.51
60731;BMP280;46580;52.114;11.674;2022-08-21T01:17:40;101062.06;;;19.54
60731;BMP280;46580;52.114;11.674;2022-08-21T01:20:11;101068.75;;;19.48
60731;BMP280;46580;52.114;11.674;2022-08-21T01:22:46;101069.06;;;19.45
60731;BMP280;46580;52.114;11.674;2022-08-21T01:25:22;101063.53;;;19.40
60731;BMP280;46580;52.114;11.674;2022-08-21T01:27:50;101073.47;;;19.37
60731;BMP280;46580;52.114;11.674;2022-08-21T01:30:22;101071.84;;;19.36
60731;BMP280;46580;52.114;11.674;2022-08-21T01:32:48;101067.59;;;19.35
60731;BMP280;46580;52.114;11.674;2022-08-21T01:35:16;101075.44;;;19.35
60731;BMP280;46580;52.114;11.674;2022-08-21T01:37:42;101066.94;;;19.41
60731;BMP280;46580;52.114;11.674;2022-08-21T01:40:11;101062.53;;;19.41
60731;BMP280;46580;52.114;11.674;2022-08-21T01:42:38;101068.75;;;19.48
60731;BMP280;46580;52.114;11.674;2022-08-21T01:45:11;101070.38;;;19.49
60731;BMP280;46580;52.114;11.674;2022-08-21T01:47:39;101067.28;;;19.54
60731;BMP280;46580;52.114;11.674;2022-08-21T01:50:14;101065.16;;;19.49
60731;BMP280;46580;52.114;11.674;2022-08-21T01:52:43;101068.25;;;19.53
60731;BMP280;46580;52.114;11.674;2022-08-21T01:55:17;101058.97;;;19.74
60731;BMP280;46580;52.114;11.674;2022-08-21T01:57:46;101060.94;;;19.72
60731;BMP280;46580;52.114;11.674;2022-08-21T02:00:21;101057.50;;;19.55
60731;BMP280;46580;52.114;11.674;2022-08-21T02:02:50;101061.09;;;19.39
60731;BMP280;46580;52.114;11.674;2022-08-21T02:05:28;101058.97;;;19.27
60731;BMP280;46580;52.114;11.674;2022-08-21T02:07:54;101056.50;;;19.25
60731;BMP280;46580;52.114;11.674;2022-08-21T02:10:25;101055.69;;;19.25
60731;BMP280;46580;52.114;11.674;2022-08-21T02:12:55;101060.41;;;19.29
60731;BMP280;46580;52.114;11.674;2022-08-21T02:15:24;101056.69;;;19.32
60731;BMP280;46580;52.114;11.674;2022-08-21T02:18:02;101064.50;;;19.32
60731;BMP280;46580;52.114;11.674;2022-08-21T02:20:39;101061.09;;;19.31
60731;BMP280;46580;52.114;11.674;2022-08-21T02:23:06;101060.25;;;19.31
60731;BMP280;46580;52.114;11.674;2022-08-21T02:25:36;101059.94;;;19.34
60731;BMP280;46580;52.114;11.674;2022-08-21T02:28:10;101060.94;;;19.33
60731;BMP280;46580;52.114;11.674;2022-08-21T02:30:42;101066.97;;;19.25
60731;BMP280;46580;52.114;11.674;2022-08-21T02:33:14;101056.50;;;19.25
60731;BMP280;46580;52.114;11.674;2022-08-21T02:35:41;101054.88;;;19.32
60731;BMP280;46580;52.114;11.674;2022-08-21T02:38:14;101050.47;;;19.33
60731;BMP280;46580;52.114;11.674;2022-08-21T02:40:49;101047.53;;;19.36
60731;BMP280;46580;52.114;11.674;2022-08-21T02:43:19;101041.69;;;19.34
60731;BMP280;46580;52.114;11.674;2022-08-21T02:45:48;101040.34;;;19.30
60731;BMP280;46580;52.114;11.674;2022-08-21T02:48:18;101045.41;;;19.16
60731;BMP280;46580;52.114;11.674;2022-08-21T02:50:48;101039.69;;;19.28
60731;BMP280;46580;52.114;11.674;2022-08-21T02:53:20;101048.84;;;19.24
60731;BMP280;46580;52.114;11.674;2022-08-21T02:55:52;101053.03;;;19.01
60731;BMP280;46580;52.114;11.674;2022-08-21T02:58:29;101047.81;;;18.94
60731;BMP280;46580;52.114;11.674;2022-08-21T03:00:56;101039.00;;;18.87
60731;BMP280;46580;52.114;11.674;2022-08-21T03:03:27;101042.91;;;18.83
60731;BMP280;46580;52.114;11.674;2022-08-21T03:06:14;101045.84;;;18.72
60731;BMP280;46580;52.114;11.674;2022-08-21T03:08:47;101046.94;;;18.70
60731;BMP280;46580;52.114;11.674;2022-08-21T03:11:15;101041.84;;;18.61
60731;BMP280;46580;52.114;11.674;2022-08-21T03:13:44;101050.97;;;18.57
60731;BMP280;46580;52.114;11.674;2022-08-21T03:16:21;101055.47;;;18.47
60731;BMP280;46580;52.114;11.674;2022-08-21T03:18:52;101051.22;;;18.38
60731;BMP280;46580;52.114;11.674;2022-08-21T03:21:19;101051.88;;;18.32
60731;BMP280;46580;52.114;11.674;2022-08-21T03:23:45;101057.66;;;18.26
60731;BMP280;46580;52.114;11.674;2022-08-21T03:26:22;101057.28;;;18.14
60731;BMP280;46580;52.114;11.674;2022-08-21T03:28:59;101052.59;;;18.17
60731;BMP280;46580;52.114;11.674;2022-08-21T03:31:25;101058.63;;;18.18
60731;BMP280;46580;52.114;11.674;2022-08-21T03:33:58;101058.25;;;18.13
60731;BMP280;46580;52.114;11.674;2022-08-21T03:36:24;101070.78;;;18.09
60731;BMP280;46580;52.114;11.674;2022-08-21T03:38:55;101065.72;;;18.08
60731;BMP280;46580;52.114;11.674;2022-08-21T03:41:32;101066.69;;;18.07
60731;BMP280;46580;52.114;11.674;2022-08-21T03:44:20;101065.88;;;18.06
60731;BMP280;46580;52.114;11.674;2022-08-21T03:46:46;101055.63;;;18.05
60731;BMP280;46580;52.114;11.674;2022-08-21T03:49:15;101055.44;;;18.06
60731;BMP280;46580;52.114;11.674;2022-08-21T03:51:52;101053.03;;;18.05
60731;BMP280;46580;52.114;11.674;2022-08-21T03:54:22;101058.38;;;18.04
60731;BMP280;46580;52.114;11.674;2022-08-21T03:57:11;101056.41;;;17.98
60731;BMP280;46580;52.114;11.674;2022-08-21T03:59:43;101051.81;;;17.92
60731;BMP280;46580;52.114;11.674;2022-08-21T04:02:18;101058.81;;;17.91
60731;BMP280;46580;52.114;11.674;2022-08-21T04:04:45;101054.41;;;17.92
60731;BMP280;46580;52.114;11.674;2022-08-21T04:07:16;101054.03;;;17.87
60731;BMP280;46580;52.114;11.674;2022-08-21T04:09:44;101058.72;;;17.84
60731;BMP280;46580;52.114;11.674;2022-08-21T04:12:18;101056.41;;;17.81
60731;BMP280;46580;52.114;11.674;2022-08-21T04:14:50;101065.50;;;17.77
60731;BMP280;46580;52.114;11.674;2022-08-21T04:17:21;101065.81;;;17.74
60731;BMP280;46580;52.114;11.674;2022-08-21T04:19:46;101068.56;;;17.72
60731;BMP280;46580;52.114;11.674;2022-08-21T04:22:12;101067.09;;;17.70
60731;BMP280;46580;52.114;11.674;2022-08-21T04:24:37;101072.28;;;17.70
60731;BMP280;46580;52.114;11.674;2022-08-21T04:27:13;101072.59;;;17.67
60731;BMP280;46580;52.114;11.674;2022-08-21T04:29:41;101069.84;;;17.68
60731;BMP280;46580;52.114;11.674;2022-08-21T04:32:07;101078.63;;;17.67
60731;BMP280;46580;52.114;11.674;2022-08-21T04:34:32;101084.63;;;17.68
60731;BMP280;46580;52.114;11.674;2022-08-21T04:37:04;101081.06;;;17.69
60731;BMP280;46580;52.114;11.674;2022-08-21T04:39:31;101081.75;;;17.71
60731;BMP280;46580;52.114;11.674;2022-08-21T04:42:03;101082.19;;;17.67
60731;BMP280;46580;52.114;11.674;2022-08-21T04:44:34;101089.78;;;17.60
60731;BMP280;46580;52.114;11.674;2022-08-21T04:47:00;101086.69;;;17.57
60731;BMP280;46580;52.114;11.674;2022-08-21T04:49:31;101092.31;;;17.52
60731;BMP280;46580;52.114;11.674;2022-08-21T04:51:59;101088.31;;;17.58
60731;BMP280;46580;52.114;11.674;2022-08-21T04:54:25;101089.28;;;17.57
60731;BMP280;46580;52.114;11.674;2022-08-21T04:57:05;101089.34;;;17.65
60731;BMP280;46580;52.114;11.674;2022-08-21T04:59:40;101096.41;;;17.72
60731;BMP280;46580;52.114;11.674;2022-08-21T05:02:10;101099.66;;;17.74
60731;BMP280;46580;52.114;11.674;2022-08-21T05:04:44;101105.19;;;17.71
60731;BMP280;46580;52.114;11.674;2022-08-21T05:07:19;101102.19;;;17.66
60731;BMP280;46580;52.114;11.674;2022-08-21T05:09:48;101103.19;;;17.65
60731;BMP280;46580;52.114;11.674;2022-08-21T05:12:23;101102.03;;;17.67
60731;BMP280;46580;52.114;11.674;2022-08-21T05:14:56;101102.56;;;17.71
60731;BMP280;46580;52.114;11.674;2022-08-21T05:17:21;101105.19;;;17.71
60731;BMP280;46580;52.114;11.674;2022-08-21T05:19:48;101106.16;;;17.70
60731;BMP280;46580;52.114;11.674;2022-08-21T05:22:25;101108.13;;;17.76
60731;BMP280;46580;52.114;11.674;2022-08-21T05:24:56;101107.59;;;17.72
60731;BMP280;46580;52.114;11.674;2022-08-21T05:27:21;101115.28;;;17.74
60731;BMP280;46580;52.114;11.674;2022-08-21T05:29:55;101114.63;;;17.89
60731;BMP280;46580;52.114;11.674;2022-08-21T05:32:21;101118.38;;;17.94
60731;BMP280;46580;52.114;11.674;2022-08-21T05:34:47;101119.41;;;18.01
60731;BMP280;46580;52.114;11.674;2022-08-21T05:37:15;101119.81;;;18.14
60731;BMP280;46580;52.114;11.674;2022-08-21T05:39:43;101117.75;;;18.17
60731;BMP280;46580;52.114;11.674;2022-08-21T05:42:11;101118.91;;;18.23
60731;BMP280;46580;52.114;11.674;2022-08-21T05:44:37;101126.78;;;18.30
60731;BMP280;46580;52.114;11.674;2022-08-21T05:47:11;101126.03;;;18.45
60731;BMP280;46580;52.114;11.674;2022-08-21T05:49:47;101120.63;;;18.39
60731;BMP280;46580;52.114;11.674;2022-08-21T05:52:23;101127.47;;;18.40
60731;BMP280;46580;52.114;11.674;2022-08-21T05:54:57;101123.59;;;18.44
60731;BMP280;46580;52.114;11.674;2022-08-21T05:57:23;101114.78;;;18.45
60731;BMP280;46580;52.114;11.674;2022-08-21T05:59:51;101125.53;;;18.42
60731;BMP280;46580;52.114;11.674;2022-08-21T06:02:18;101115.53;;;18.30
60731;BMP280;46580;52.114;11.674;2022-08-21T06:04:46;101126.38;;;18.18
60731;BMP280;46580;52.114;11.674;2022-08-21T06:07:12;101120.63;;;18.14
60731;BMP280;46580;52.114;11.674;2022-08-21T06:09:38;101119.63;;;18.07
60731;BMP280;46580;52.114;11.674;2022-08-21T06:12:12;101119.31;;;18.10
60731;BMP280;46580;52.114;11.674;2022-08-21T06:14:38;101119.81;;;18.14
60731;BMP280;46580;52.114;11.674;2022-08-21T06:17:13;101112.38;;;18.19
60731;BMP280;46580;52.114;11.674;2022-08-21T06:19:41;101117.25;;;18.22
60731;BMP280;46580;52.114;11.674;2022-08-21T06:22:15;101124.16;;;18.30
60731;BMP280;46580;52.114;11.674;2022-08-21T06:24:43;101124.22;;;18.38
60731;BMP280;46580;52.114;11.674;2022-08-21T06:27:11;101116.09;;;18.49
60731;BMP280;46580;52.114;11.674;2022-08-21T06:29:46;101119.06;;;18.54
60731;BMP280;46580;52.114;11.674;2022-08-21T06:32:14;101118.41;;;18.52
60731;BMP280;46580;52.114;11.674;2022-08-21T06:34:52;101120.53;;;18.56
60731;BMP280;46580;52.114;11.674;2022-08-21T06:37:20;101116.00;;;18.58
60731;BMP280;46580;52.114;11.674;2022-08-21T06:39:45;101114.84;;;18.61
60731;BMP280;46580;52.114;11.674;2022-08-21T06:42:27;101114.66;;;18.54
60731;BMP280;46580;52.114;11.674;2022-08-21T06:44:56;101119.09;;;18.61
60731;BMP280;46580;52.114;11.674;2022-08-21T06:47:22;101118.69;;;18.74
60731;BMP280;46580;52.114;11.674;2022-08-21T06:49:50;101120.53;;;18.89
60731;BMP280;46580;52.114;11.674;2022-08-21T06:52:18;101123.38;;;19.34
60731;BMP280;46580;52.114;11.674;2022-08-21T06:54:44;101125.81;;;19.12
60731;BMP280;46580;52.114;11.674;2022-08-21T06:57:10;101130.69;;;19.07
60731;BMP280;46580;52.114;11.674;2022-08-21T06:59:36;101123.66;;;19.08
60731;BMP280;46580;52.114;11.674;2022-08-21T07:02:01;101127.13;;;19.16
60731;BMP280;46580;52.114;11.674;2022-08-21T07:04:27;101121.13;;;19.39
60731;BMP280;46580;52.114;11.674;2022-08-21T07:06:55;101118.16;;;19.34
60731;BMP280;46580;52.114;11.674;2022-08-21T07:09:21;101122.09;;;19.38
60731;BMP280;46580;52.114;11.674;2022-08-21T07:11:57;101121.63;;;19.42
60731;BMP280;46580;52.114;11.674;2022-08-21T07:14:22;101113.94;;;19.49
60731;BMP280;46580;52.114;11.674;2022-08-21T07:16:49;101120.66;;;19.51
60731;BMP280;46580;52.114;11.674;2022-08-21T07:19:18;101114.00;;;19.64
60731;BMP280;46580;52.114;11.674;2022-08-21T07:21:49;101115.75;;;19.95
60731;BMP280;46580;52.114;11.674;2022-08-21T07:24:19;101107.59;;;19.98
60731;BMP280;46580;52.114;11.674;2022-08-21T07:26:54;101104.66;;;20.01
60731;BMP280;46580;52.114;11.674;2022-08-21T07:29:22;101098.13;;;19.97
60731;BMP280;46580;52.114;11.674;2022-08-21T07:31:52;101097.13;;;20.06
60731;BMP280;46580;52.114;11.674;2022-08-21T07:34:18;101097.59;;;20.01
60731;BMP280;46580;52.114;11.674;2022-08-21T07:36:43;101092.75;;;19.91
60731;BMP280;46580;52.114;11.674;2022-08-21T07:39:11;101089.75;;;20.01
60731;BMP280;46580;52.114;11.674;2022-08-21T07:41:37;101084.53;;;20.09
60731;BMP280;46580;52.114;11.674;2022-08-21T07:44:03;101083.97;;;20.29
60731;BMP280;46580;52.114;11.674;2022-08-21T07:46:31;101081.38;;;20.37
60731;BMP280;46580;52.114;11.674;2022-08-21T07:49:04;101083.19;;;20.74
60731;BMP280;46580;52.114;11.674;2022-08-21T07:51:37;101093.75;;;21.10
60731;BMP280;46580;52.114;11.674;2022-08-21T07:54:06;101089.91;;;20.98
60731;BMP280;46580;52.114;11.674;2022-08-21T07:56:34;101091.19;;;21.02
60731;BMP280;46580;52.114;11.674;2022-08-21T07:59:10;101089.22;;;21.04
60731;BMP280;46580;52.114;11.674;2022-08-21T08:01:36;101085.25;;;20.86
60731;BMP280;46580;52.114;11.674;2022-08-21T08:04:04;101087.06;;;20.78
60731;BMP280;46580;52.114;11.674;2022-08-21T08:09:11;101089.44;;;21.24
60731;BMP280;46580;52.114;11.674;2022-08-21T08:11:44;101084.09;;;21.40
60731;BMP280;46580;52.114;11.674;2022-08-21T08:14:10;101084.03;;;21.26
60731;BMP280;46580;52.114;11.674;2022-08-21T08:16:42;101088.88;;;21.15
60731;BMP280;46580;52.114;11.674;2022-08-21T08:19:10;101078.56;;;21.35
60731;BMP280;46580;52.114;11.674;2022-08-21T08:21:35;101075.41;;;21.61
60731;BMP280;46580;52.114;11.674;2022-08-21T08:24:07;101074.47;;;21.55
60731;BMP280;46580;52.114;11.674;2022-08-21T08:26:32;101075.41;;;21.61
60731;BMP280;46580;52.114;11.674;2022-08-21T08:29:08;101063.72;;;21.64
60731;BMP280;46580;52.114;11.674;2022-08-21T08:31:33;101067.19;;;21.79
60731;BMP280;46580;52.114;11.674;2022-08-21T08:33:59;101058.94;;;21.89
60731;BMP280;46580;52.114;11.674;2022-08-21T08:36:33;101058.06;;;21.75
60731;BMP280;46580;52.114;11.674;2022-08-21T08:38:59;101065.72;;;21.62
60731;BMP280;46580;52.114;11.674;2022-08-21T08:41:26;101064.00;;;22.05
60731;BMP280;46580;52.114;11.674;2022-08-21T08:44:22;101064.63;;;22.07
60731;BMP280;46580;52.114;11.674;2022-08-21T08:46:51;101060.75;;;22.31
60731;BMP280;46580;52.114;11.674;2022-08-21T08:49:30;101052.06;;;22.59
60731;BMP280;46580;52.114;11.674;2022-08-21T08:55:48;101054.16;;;22.35
60731;BMP280;46580;52.114;11.674;2022-08-21T08:58:45;101053.03;;;22.58
60731;BMP280;46580;52.114;11.674;2022-08-21T09:01:17;101047.97;;;22.71
60731;BMP280;46580;52.114;11.674;2022-08-21T09:03:57;101039.44;;;23.03
60731;BMP280;46580;52.114;11.674;2022-08-21T09:09:24;101050.03;;;23.10
60731;BMP280;46580;52.114;11.674;2022-08-21T09:12:09;101052.84;;;23.49
60731;BMP280;46580;52.114;11.674;2022-08-21T09:17:17;101050.97;;;23.64
60731;BMP280;46580;52.114;11.674;2022-08-21T09:26:14;101044.50;;;23.46
60731;BMP280;46580;52.114;11.674;2022-08-21T09:28:39;101042.63;;;23.60
60731;BMP280;46580;52.114;11.674;2022-08-21T09:31:29;101042.25;;;23.63
60731;BMP280;46580;52.114;11.674;2022-08-21T09:34:04;101045.38;;;23.52
60731;BMP280;46580;52.114;11.674;2022-08-21T09:36:39;101040.13;;;23.52
60731;BMP280;46580;52.114;11.674;2022-08-21T09:39:27;101048.00;;;23.52
60731;BMP280;46580;52.114;11.674;2022-08-21T09:42:05;101042.44;;;23.62
60731;BMP280;46580;52.114;11.674;2022-08-21T09:44:35;101036.50;;;23.80
60731;BMP280;46580;52.114;11.674;2022-08-21T09:47:07;101039.56;;;24.10
60731;BMP280;46580;52.114;11.674;2022-08-21T09:49:37;101029.34;;;23.95
60731;BMP280;46580;52.114;11.674;2022-08-21T09:52:14;101026.88;;;23.93
60731;BMP280;46580;52.114;11.674;2022-08-21T09:54:41;101028.03;;;24.05
60731;BMP280;46580;52.114;11.674;2022-08-21T10:00:28;101019.03;;;24.33
60731;BMP280;46580;52.114;11.674;2022-08-21T10:03:18;101015.03;;;24.43
60731;BMP280;46580;52.114;11.674;2022-08-21T10:08:32;101017.53;;;24.57
60731;BMP280;46580;52.114;11.674;2022-08-21T10:11:10;101020.06;;;24.32
60731;BMP280;46580;52.114;11.674;2022-08-21T10:13:54;101019.69;;;24.41
60731;BMP280;46580;52.114;11.674;2022-08-21T10:19:26;101013.84;;;24.39
60731;BMP280;46580;52.114;11.674;2022-08-21T10:25:23;101012.03;;;24.46
60731;BMP280;46580;52.114;11.674;2022-08-21T10:28:00;101012.16;;;24.78
60731;BMP280;46580;52.114;11.674;2022-08-21T10:35:47;101001.28;;;24.93
60731;BMP280;46580;52.114;11.674;2022-08-21T10:41:18;101011.97;;;24.79
60731;BMP280;46580;52.114;11.674;2022-08-21T10:49:24;100991.78;;;25.30
60731;BMP280;46580;52.114;11.674;2022-08-21T10:52:15;100984.06;;;25.54
60731;BMP280;46580;52.114;11.674;2022-08-21T10:57:22;100996.44;;;25.35
60731;BMP280;46580;52.114;11.674;2022-08-21T11:00:17;100986.88;;;25.08
60731;BMP280;46580;52.114;11.674;2022-08-21T11:05:35;100977.56;;;25.18
60731;BMP280;46580;52.114;11.674;2022-08-21T11:10:40;100981.13;;;24.73
60731;BMP280;46580;52.114;11.674;2022-08-21T11:13:14;100987.44;;;24.72
60731;BMP280;46580;52.114;11.674;2022-08-21T11:15:56;100987.22;;;24.74
60731;BMP280;46580;52.114;11.674;2022-08-21T11:18:41;100988.84;;;24.81
60731;BMP280;46580;52.114;11.674;2022-08-21T11:23:40;100980.41;;;25.11
60731;BMP280;46580;52.114;11.674;2022-08-21T11:26:29;100974.97;;;25.37
60731;BMP280;46580;52.114;11.674;2022-08-21T11:29:32;100981.78;;;25.00
60731;BMP280;46580;52.114;11.674;2022-08-21T11:34:59;100986.88;;;25.08
60731;BMP280;46580;52.114;11.674;2022-08-21T11:38:00;100971.50;;;25.12
60731;BMP280;46580;52.114;11.674;2022-08-21T11:43:40;100976.75;;;25.18
60731;BMP280;46580;52.114;11.674;2022-08-21T11:49:05;100968.44;;;25.08
60731;BMP280;46580;52.114;11.674;2022-08-21T11:51:53;100972.31;;;25.18
60731;BMP280;46580;52.114;11.674;2022-08-21T11:54:58;100966.63;;;25.15
60731;BMP280;46580;52.114;11.674;2022-08-21T11:57:35;100965.41;;;25.11
60731;BMP280;46580;52.114;11.674;2022-08-21T12:00:11;100962.97;;;25.16
60731;BMP280;46580;52.114;11.674;2022-08-21T12:02:51;100962.97;;;25.10
60731;BMP280;46580;52.114;11.674;2022-08-21T12:06:00;100964.41;;;24.93
60731;BMP280;46580;52.114;11.674;2022-08-21T12:08:41;100964.16;;;24.95
60731;BMP280;46580;52.114;11.674;2022-08-21T12:11:22;100951.59;;;24.84
60731;BMP280;46580;52.114;11.674;2022-08-21T12:17:22;100955.25;;;25.72
60731;BMP280;46580;52.114;11.674;2022-08-21T12:20:16;100947.50;;;25.89
60731;BMP280;46580;52.114;11.674;2022-08-21T12:22:52;100946.88;;;26.00
60731;BMP280;46580;52.114;11.674;2022-08-21T12:25:25;100945.13;;;25.56
60731;BMP280;46580;52.114;11.674;2022-08-21T12:27:53;100941.47;;;25.57
60731;BMP280;46580;52.114;11.674;2022-08-21T12:33:01;100938.25;;;26.23
60731;BMP280;46580;52.114;11.674;2022-08-21T12:35:39;100940.56;;;26.07
60731;BMP280;46580;52.114;11.674;2022-08-21T12:38:18;100939.59;;;25.89
60731;BMP280;46580;52.114;11.674;2022-08-21T12:41:01;100941.22;;;25.90
60731;BMP280;46580;52.114;11.674;2022-08-21T12:43:35;100942.56;;;26.18
60731;BMP280;46580;52.114;11.674;2022-08-21T12:46:01;100937.94;;;26.44
60731;BMP280;46580;52.114;11.674;2022-08-21T12:48:35;100935.78;;;26.28
60731;BMP280;46580;52.114;11.674;2022-08-21T12:51:17;100937.56;;;26.47
60731;BMP280;46580;52.114;11.674;2022-08-21T12:53:55;100934.94;;;25.78
60731;BMP280;46580;52.114;11.674;2022-08-21T12:56:23;100935.34;;;25.75
60731;BMP280;46580;52.114;11.674;2022-08-21T12:59:11;100939.44;;;25.72
60731;BMP280;46580;52.114;11.674;2022-08-21T13:01:39;100926.44;;;25.76
60731;BMP280;46580;52.114;11.674;2022-08-21T13:04:13;100925.63;;;25.70
60731;BMP280;46580;52.114;11.674;2022-08-21T13:06:43;100929.31;;;25.56
60731;BMP280;46580;52.114;11.674;2022-08-21T13:09:13;100929.13;;;25.51
60731;BMP280;46580;52.114;11.674;2022-08-21T13:11:40;100925.03;;;25.61
60731;BMP280;46580;52.114;11.674;2022-08-21T13:14:17;100929.50;;;25.54
60731;BMP280;46580;52.114;11.674;2022-08-21T13:16:46;100924.84;;;25.63
60731;BMP280;46580;52.114;11.674;2022-08-21T13:19:17;100925.63;;;25.70
60731;BMP280;46580;52.114;11.674;2022-08-21T13:21:44;100929.28;;;25.62
60731;BMP280;46580;52.114;11.674;2022-08-21T13:24:27;100926.69;;;25.56
60731;BMP280;46580;52.114;11.674;2022-08-21T13:26:54;100920.78;;;25.54
60731;BMP280;46580;52.114;11.674;2022-08-21T13:29:26;100920.13;;;25.77
60731;BMP280;46580;52.114;11.674;2022-08-21T13:31:58;100913.03;;;25.91
60731;BMP280;46580;52.114;11.674;2022-08-21T13:34:30;100910.81;;;25.69
60731;BMP280;46580;52.114;11.674;2022-08-21T13:37:04;100912.09;;;26.15
60731;BMP280;46580;52.114;11.674;2022-08-21T13:39:30;100909.94;;;26.43
60731;BMP280;46580;52.114;11.674;2022-08-21T13:41:58;100904.91;;;26.71
60731;BMP280;46580;52.114;11.674;2022-08-21T13:44:32;100904.38;;;26.57
60731;BMP280;46580;52.114;11.674;2022-08-21T13:47:01;100902.41;;;26.52
60731;BMP280;46580;52.114;11.674;2022-08-21T13:49:33;100902.50;;;26.64
60731;BMP280;46580;52.114;11.674;2022-08-21T13:51:59;100894.44;;;27.13
60731;BMP280;46580;52.114;11.674;2022-08-21T13:54:34;100891.41;;;27.33
60731;BMP280;46580;52.114;11.674;2022-08-21T13:56:59;100893.88;;;27.28
60731;BMP280;46580;52.114;11.674;2022-08-21T14:02:01;100892.34;;;27.56
60731;BMP280;46580;52.114;11.674;2022-08-21T14:04:39;100902.75;;;27.93
60731;BMP280;46580;52.114;11.674;2022-08-21T14:07:19;100893.22;;;28.38
60731;BMP280;46580;52.114;11.674;2022-08-21T14:09:45;100887.16;;;28.49
60731;BMP280;46580;52.114;11.674;2022-08-21T14:12:38;100890.75;;;28.25
60731;BMP280;46580;52.114;11.674;2022-08-21T14:15:06;100885.16;;;28.16
60731;BMP280;46580;52.114;11.674;2022-08-21T14:17:37;100880.59;;;28.51
60731;BMP280;46580;52.114;11.674;2022-08-21T14:20:05;100881.78;;;28.55
60731;BMP280;46580;52.114;11.674;2022-08-21T14:25:05;100889.72;;;28.55
60731;BMP280;46580;52.114;11.674;2022-08-21T14:27:34;100885.97;;;28.34
60731;BMP280;46580;52.114;11.674;2022-08-21T14:30:04;100886.91;;;28.39
60731;BMP280;46580;52.114;11.674;2022-08-21T14:32:38;100889.50;;;28.10
60731;BMP280;46580;52.114;11.674;2022-08-21T14:35:04;100882.53;;;28.16
60731;BMP280;46580;52.114;11.674;2022-08-21T14:37:30;100874.38;;;28.46
60731;BMP280;46580;52.114;11.674;2022-08-21T14:39:56;100871.56;;;28.30
60731;BMP280;46580;52.114;11.674;2022-08-21T14:42:21;100867.00;;;28.37
60731;BMP280;46580;52.114;11.674;2022-08-21T14:44:47;100869.34;;;28.27
60731;BMP280;46580;52.114;11.674;2022-08-21T14:47:12;100865.09;;;28.26
60731;BMP280;46580;52.114;11.674;2022-08-21T14:49:38;100859.25;;;28.35
60731;BMP280;46580;52.114;11.674;2022-08-21T14:52:05;100867.28;;;28.11
60731;BMP280;46580;52.114;11.674;2022-08-21T14:54:31;100855.03;;;28.17
60731;BMP280;46580;52.114;11.674;2022-08-21T14:57:01;100853.03;;;28.30
60731;BMP280;46580;52.114;11.674;2022-08-21T14:59:38;100856.72;;;28.29
60731;BMP280;46580;52.114;11.674;2022-08-21T15:02:04;100855.59;;;28.36
60731;BMP280;46580;52.114;11.674;2022-08-21T15:04:30;100859.56;;;28.56
60731;BMP280;46580;52.114;11.674;2022-08-21T15:06:56;100849.16;;;28.43
60731;BMP280;46580;52.114;11.674;2022-08-21T15:09:21;100845.81;;;28.19
60731;BMP280;46580;52.114;11.674;2022-08-21T15:11:47;100854.81;;;28.00
60731;BMP280;46580;52.114;11.674;2022-08-21T15:14:20;100858.75;;;27.80
60731;BMP280;46580;52.114;11.674;2022-08-21T15:16:46;100855.56;;;27.55
60731;BMP280;46580;52.114;11.674;2022-08-21T15:19:12;100846.72;;;27.67
60731;BMP280;46580;52.114;11.674;2022-08-21T15:21:37;100849.25;;;27.91
60731;BMP280;46580;52.114;11.674;2022-08-21T15:24:02;100848.00;;;27.93
60731;BMP280;46580;52.114;11.674;2022-08-21T15:26:28;100845.72;;;27.79
60731;BMP280;46580;52.114;11.674;2022-08-21T15:28:53;100850.03;;;27.56